sensor_id;sensor_type;location;lat;lon;timestamp;P1;durP1;ratioP1;P2;durP2;ratioP2
61150;SDS011;47029;50.994;2.876;2022-12-07T00:01:12;9.68;;;3.50;;
61150;SDS011;47029;50.994;2.876;2022-12-07T00:03:41;10.52;;;3.90;;
61150;SDS011;47029;50.994;2.876;2022-12-07T00:06:09;9.63;;;3.65;;
61150;SDS011;47029;50.994;2.876;2022-12-07T00:08:39;10.75;;;4.50;;
61150;SDS011;47029;50.994;2.876;2022-12-07T00:11:07;12.20;;;4.43;;
61150;SDS011;47029;50.994;2.876;2022-12-07T00:13:36;12.13;;;3.90;;
61150;SDS011;47029;50.994;2.876;2022-12-07T00:18:36;10.48;;;3.58;;
61150;SDS011;47029;50.994;2.876;2022-12-07T00:21:03;11.38;;;3.75;;
61150;SDS011;47029;50.994;2.876;2022-12-07T00:23:35;9.45;;;3.72;;
61150;SDS011;47029;50.994;2.876;2022-12-07T00:26:06;10.90;;;3.62;;
61150;SDS011;47029;50.994;2.876;2022-12-07T00:28:34;9.73;;;4.10;;
61150;SDS011;47029;50.994;2.876;2022-12-07T00:31:04;10.13;;;3.65;;
61150;SDS011;47029;50.994;2.876;2022-12-07T00:33:35;9.45;;;3.50;;
61150;SDS011;47029;50.994;2.876;2022-12-07T00:36:03;9.73;;;3.60;;
61150;SDS011;47029;50.994;2.876;2022-12-07T00:38:36;12.20;;;4.32;;
61150;SDS011;47029;50.994;2.876;2022-12-07T00:41:05;11.02;;;3.92;;
61150;SDS011;47029;50.994;2.876;2022-12-07T00:43:34;11.18;;;4.30;;
61150;SDS011;47029;50.994;2.876;2022-12-07T00:46:02;17.15;;;8.07;;
61150;SDS011;47029;50.994;2.876;2022-12-07T00:48:29;10.55;;;4.40;;
61150;SDS011;47029;50.994;2.876;2022-12-07T00:50:59;9.73;;;3.60;;
61150;SDS011;47029;50.994;2.876;2022-12-07T00:53:27;10.93;;;3.60;;
61150;SDS011;47029;50.994;2.876;2022-12-07T00:55:54;9.85;;;3.70;;
61150;SDS011;47029;50.994;2.876;2022-12-07T00:58:23;11.57;;;4.85;;
61150;SDS011;47029;50.994;2.876;2022-12-07T01:00:49;12.48;;;4.10;;
61150;SDS011;47029;50.994;2.876;2022-12-07T01:03:15;14.40;;;5.30;;
61150;SDS011;47029;50.994;2.876;2022-12-07T01:05:49;12.40;;;3.95;;
61150;SDS011;47029;50.994;2.876;2022-12-07T01:08:17;10.77;;;4.35;;
61150;SDS011;47029;50.994;2.876;2022-12-07T01:10:43;11.90;;;4.53;;
61150;SDS011;47029;50.994;2.876;2022-12-07T01:13:09;12.37;;;4.80;;
61150;SDS011;47029;50.994;2.876;2022-12-07T01:15:40;10.63;;;4.15;;
61150;SDS011;47029;50.994;2.876;2022-12-07T01:18:08;13.27;;;4.18;;
61150;SDS011;47029;50.994;2.876;2022-12-07T01:20:34;11.38;;;3.90;;
61150;SDS011;47029;50.994;2.876;2022-12-07T01:23:01;12.85;;;4.20;;
61150;SDS011;47029;50.994;2.876;2022-12-07T01:25:27;9.95;;;3.97;;
61150;SDS011;47029;50.994;2.876;2022-12-07T01:27:54;10.18;;;4.12;;
61150;SDS011;47029;50.994;2.876;2022-12-07T01:30:21;10.57;;;4.35;;
61150;SDS011;47029;50.994;2.876;2022-12-07T01:32:47;11.63;;;4.22;;
61150;SDS011;47029;50.994;2.876;2022-12-07T01:35:14;13.15;;;4.12;;
61150;SDS011;47029;50.994;2.876;2022-12-07T01:37:40;10.40;;;3.78;;
61150;SDS011;47029;50.994;2.876;2022-12-07T01:40:08;10.13;;;4.10;;
61150;SDS011;47029;50.994;2.876;2022-12-07T01:42:35;11.02;;;3.87;;
61150;SDS011;47029;50.994;2.876;2022-12-07T01:46:02;10.18;;;3.87;;
61150;SDS011;47029;50.994;2.876;2022-12-07T01:48:02;9.82;;;3.58;;
61150;SDS011;47029;50.994;2.876;2022-12-07T01:50:30;10.57;;;3.58;;
61150;SDS011;47029;50.994;2.876;2022-12-07T01:52:56;11.07;;;3.92;;
61150;SDS011;47029;50.994;2.876;2022-12-07T01:55:27;9.20;;;3.42;;
61150;SDS011;47029;50.994;2.876;2022-12-07T01:57:55;10.52;;;3.87;;
61150;SDS011;47029;50.994;2.876;2022-12-07T02:00:24;10.27;;;3.78;;
61150;SDS011;47029;50.994;2.876;2022-12-07T02:02:55;9.48;;;3.45;;
61150;SDS011;47029;50.994;2.876;2022-12-07T02:05:34;9.82;;;3.58;;
61150;SDS011;47029;50.994;2.876;2022-12-07T02:08:05;9.43;;;3.50;;
61150;SDS011;47029;50.994;2.876;2022-12-07T02:10:32;10.77;;;3.55;;
61150;SDS011;47029;50.994;2.876;2022-12-07T02:13:17;9.18;;;3.67;;
61150;SDS011;47029;50.994;2.876;2022-12-07T02:21:27;11.07;;;3.92;;
61150;SDS011;47029;50.994;2.876;2022-12-07T02:27:19;11.18;;;4.12;;
61150;SDS011;47029;50.994;2.876;2022-12-07T02:30:00;11.68;;;3.83;;
61150;SDS011;47029;50.994;2.876;2022-12-07T02:40:38;10.68;;;3.80;;
61150;SDS011;47029;50.994;2.876;2022-12-07T02:43:13;10.77;;;3.45;;
61150;SDS011;47029;50.994;2.876;2022-12-07T02:45:51;8.88;;;3.12;;
61150;SDS011;47029;50.994;2.876;2022-12-07T02:48:21;10.70;;;3.60;;
61150;SDS011;47029;50.994;2.876;2022-12-07T02:50:50;10.02;;;3.08;;
61150;SDS011;47029;50.994;2.876;2022-12-07T02:53:31;10.02;;;3.17;;
61150;SDS011;47029;50.994;2.876;2022-12-07T02:56:12;10.98;;;3.83;;
61150;SDS011;47029;50.994;2.876;2022-12-07T03:13:07;9.95;;;2.65;;
61150;SDS011;47029;50.994;2.876;2022-12-07T03:15:55;9.02;;;2.67;;
61150;SDS011;47029;50.994;2.876;2022-12-07T03:18:28;9.52;;;2.72;;
61150;SDS011;47029;50.994;2.876;2022-12-07T03:20:58;11.10;;;3.00;;
61150;SDS011;47029;50.994;2.876;2022-12-07T03:23:30;8.80;;;2.50;;
61150;SDS011;47029;50.994;2.876;2022-12-07T03:26:01;7.85;;;2.60;;
61150;SDS011;47029;50.994;2.876;2022-12-07T03:28:31;9.35;;;2.67;;
61150;SDS011;47029;50.994;2.876;2022-12-07T03:31:04;9.93;;;2.60;;
61150;SDS011;47029;50.994;2.876;2022-12-07T03:36:34;10.15;;;2.75;;
61150;SDS011;47029;50.994;2.876;2022-12-07T03:41:53;9.48;;;2.47;;
61150;SDS011;47029;50.994;2.876;2022-12-07T03:44:20;7.28;;;2.42;;
61150;SDS011;47029;50.994;2.876;2022-12-07T03:46:59;12.55;;;3.22;;
61150;SDS011;47029;50.994;2.876;2022-12-07T03:49:35;6.20;;;2.20;;
61150;SDS011;47029;50.994;2.876;2022-12-07T03:55:05;8.68;;;2.80;;
61150;SDS011;47029;50.994;2.876;2022-12-07T03:57:49;7.12;;;2.37;;
61150;SDS011;47029;50.994;2.876;2022-12-07T04:00:23;7.90;;;2.43;;
61150;SDS011;47029;50.994;2.876;2022-12-07T04:02:54;5.15;;;2.05;;
61150;SDS011;47029;50.994;2.876;2022-12-07T04:05:22;6.93;;;2.55;;
61150;SDS011;47029;50.994;2.876;2022-12-07T04:07:48;7.43;;;2.08;;
61150;SDS011;47029;50.994;2.876;2022-12-07T04:10:16;6.03;;;1.98;;
61150;SDS011;47029;50.994;2.876;2022-12-07T04:12:43;10.75;;;2.17;;
61150;SDS011;47029;50.994;2.876;2022-12-07T04:15:09;5.68;;;1.98;;
61150;SDS011;47029;50.994;2.876;2022-12-07T04:17:35;6.18;;;2.10;;
61150;SDS011;47029;50.994;2.876;2022-12-07T04:20:03;5.45;;;2.08;;
61150;SDS011;47029;50.994;2.876;2022-12-07T04:22:30;3.92;;;1.77;;
61150;SDS011;47029;50.994;2.876;2022-12-07T04:24:57;9.68;;;2.37;;
61150;SDS011;47029;50.994;2.876;2022-12-07T04:27:24;7.20;;;2.20;;
61150;SDS011;47029;50.994;2.876;2022-12-07T04:29:51;8.15;;;2.00;;
61150;SDS011;47029;50.994;2.876;2022-12-07T04:32:18;8.82;;;2.65;;
61150;SDS011;47029;50.994;2.876;2022-12-07T04:34:44;8.18;;;2.45;;
61150;SDS011;47029;50.994;2.876;2022-12-07T04:37:10;9.68;;;2.25;;
61150;SDS011;47029;50.994;2.876;2022-12-07T04:39:40;7.80;;;2.55;;
61150;SDS011;47029;50.994;2.876;2022-12-07T04:42:06;6.50;;;2.33;;
61150;SDS011;47029;50.994;2.876;2022-12-07T04:44:33;8.77;;;2.47;;
61150;SDS011;47029;50.994;2.876;2022-12-07T04:47:00;6.90;;;2.28;;
61150;SDS011;47029;50.994;2.876;2022-12-07T04:49:30;6.15;;;2.30;;
61150;SDS011;47029;50.994;2.876;2022-12-07T04:51:59;7.07;;;2.25;;
61150;SDS011;47029;50.994;2.876;2022-12-07T04:54:25;6.68;;;2.00;;
61150;SDS011;47029;50.994;2.876;2022-12-07T04:56:52;7.07;;;2.40;;
61150;SDS011;47029;50.994;2.876;2022-12-07T04:59:20;8.23;;;2.45;;
61150;SDS011;47029;50.994;2.876;2022-12-07T05:01:46;7.30;;;2.50;;
61150;SDS011;47029;50.994;2.876;2022-12-07T05:04:12;8.85;;;2.08;;
61150;SDS011;47029;50.994;2.876;2022-12-07T05:06:38;7.40;;;2.35;;
61150;SDS011;47029;50.994;2.876;2022-12-07T05:09:05;7.90;;;2.47;;
61150;SDS011;47029;50.994;2.876;2022-12-07T05:11:30;6.72;;;2.30;;
61150;SDS011;47029;50.994;2.876;2022-12-07T05:14:07;8.40;;;2.90;;
61150;SDS011;47029;50.994;2.876;2022-12-07T05:16:35;15.93;;;6.45;;
61150;SDS011;47029;50.994;2.876;2022-12-07T05:19:01;18.40;;;6.97;;
61150;SDS011;47029;50.994;2.876;2022-12-07T05:21:27;16.60;;;6.65;;
61150;SDS011;47029;50.994;2.876;2022-12-07T05:23:54;13.15;;;3.50;;
61150;SDS011;47029;50.994;2.876;2022-12-07T05:26:21;16.52;;;6.62;;
61150;SDS011;47029;50.994;2.876;2022-12-07T05:28:56;12.25;;;5.03;;
61150;SDS011;47029;50.994;2.876;2022-12-07T05:31:22;9.55;;;3.67;;
61150;SDS011;47029;50.994;2.876;2022-12-07T05:33:50;12.10;;;3.20;;
61150;SDS011;47029;50.994;2.876;2022-12-07T05:36:18;9.75;;;3.15;;
61150;SDS011;47029;50.994;2.876;2022-12-07T05:38:45;9.95;;;3.40;;
61150;SDS011;47029;50.994;2.876;2022-12-07T05:41:13;10.20;;;3.28;;
61150;SDS011;47029;50.994;2.876;2022-12-07T05:44:00;10.18;;;2.70;;
61150;SDS011;47029;50.994;2.876;2022-12-07T05:46:27;8.02;;;2.55;;
61150;SDS011;47029;50.994;2.876;2022-12-07T05:48:55;11.20;;;2.80;;
61150;SDS011;47029;50.994;2.876;2022-12-07T05:51:20;14.07;;;2.90;;
61150;SDS011;47029;50.994;2.876;2022-12-07T05:53:48;9.73;;;2.62;;
61150;SDS011;47029;50.994;2.876;2022-12-07T05:56:17;7.22;;;2.70;;
61150;SDS011;47029;50.994;2.876;2022-12-07T05:58:45;12.57;;;2.85;;
61150;SDS011;47029;50.994;2.876;2022-12-07T06:01:29;32.28;;;10.38;;
61150;SDS011;47029;50.994;2.876;2022-12-07T06:03:56;13.80;;;4.57;;
61150;SDS011;47029;50.994;2.876;2022-12-07T06:06:23;11.40;;;3.60;;
61150;SDS011;47029;50.994;2.876;2022-12-07T06:08:50;8.52;;;2.50;;
61150;SDS011;47029;50.994;2.876;2022-12-07T06:11:17;9.25;;;2.70;;
61150;SDS011;47029;50.994;2.876;2022-12-07T06:14:04;14.50;;;3.58;;
61150;SDS011;47029;50.994;2.876;2022-12-07T06:16:31;15.52;;;6.35;;
61150;SDS011;47029;50.994;2.876;2022-12-07T06:18:58;14.43;;;5.80;;
61150;SDS011;47029;50.994;2.876;2022-12-07T06:21:24;24.10;;;8.90;;
61150;SDS011;47029;50.994;2.876;2022-12-07T06:23:51;10.07;;;2.97;;
61150;SDS011;47029;50.994;2.876;2022-12-07T06:26:17;9.02;;;2.70;;
61150;SDS011;47029;50.994;2.876;2022-12-07T06:28:47;26.58;;;9.68;;
61150;SDS011;47029;50.994;2.876;2022-12-07T06:31:13;16.70;;;4.32;;
61150;SDS011;47029;50.994;2.876;2022-12-07T06:33:39;9.75;;;3.15;;
61150;SDS011;47029;50.994;2.876;2022-12-07T06:36:06;10.95;;;3.20;;
61150;SDS011;47029;50.994;2.876;2022-12-07T06:38:32;11.45;;;3.50;;
61150;SDS011;47029;50.994;2.876;2022-12-07T06:41:00;14.15;;;3.80;;
61150;SDS011;47029;50.994;2.876;2022-12-07T06:43:27;9.75;;;3.75;;
61150;SDS011;47029;50.994;2.876;2022-12-07T06:45:53;15.18;;;4.78;;
61150;SDS011;47029;50.994;2.876;2022-12-07T06:48:19;15.27;;;4.40;;
61150;SDS011;47029;50.994;2.876;2022-12-07T06:50:47;16.08;;;4.70;;
61150;SDS011;47029;50.994;2.876;2022-12-07T06:53:14;10.20;;;3.75;;
61150;SDS011;47029;50.994;2.876;2022-12-07T06:55:41;12.73;;;3.72;;
61150;SDS011;47029;50.994;2.876;2022-12-07T06:58:08;11.70;;;3.78;;
61150;SDS011;47029;50.994;2.876;2022-12-07T07:00:34;13.62;;;4.93;;
61150;SDS011;47029;50.994;2.876;2022-12-07T07:03:00;11.85;;;4.50;;
61150;SDS011;47029;50.994;2.876;2022-12-07T07:05:28;12.45;;;3.92;;
61150;SDS011;47029;50.994;2.876;2022-12-07T07:07:54;11.98;;;4.75;;
61150;SDS011;47029;50.994;2.876;2022-12-07T07:10:22;17.40;;;5.80;;
61150;SDS011;47029;50.994;2.876;2022-12-07T07:12:48;19.85;;;6.53;;
61150;SDS011;47029;50.994;2.876;2022-12-07T07:15:15;16.35;;;5.85;;
61150;SDS011;47029;50.994;2.876;2022-12-07T07:17:42;13.73;;;4.43;;
61150;SDS011;47029;50.994;2.876;2022-12-07T07:20:08;12.02;;;4.10;;
61150;SDS011;47029;50.994;2.876;2022-12-07T07:22:35;11.45;;;3.90;;
61150;SDS011;47029;50.994;2.876;2022-12-07T07:25:01;11.30;;;3.97;;
61150;SDS011;47029;50.994;2.876;2022-12-07T07:27:30;13.32;;;3.92;;
61150;SDS011;47029;50.994;2.876;2022-12-07T07:30:02;17.67;;;4.30;;
61150;SDS011;47029;50.994;2.876;2022-12-07T07:32:35;10.13;;;4.03;;
61150;SDS011;47029;50.994;2.876;2022-12-07T07:35:05;9.15;;;3.50;;
61150;SDS011;47029;50.994;2.876;2022-12-07T07:37:33;8.20;;;3.60;;
61150;SDS011;47029;50.994;2.876;2022-12-07T07:40:09;12.45;;;4.78;;
61150;SDS011;47029;50.994;2.876;2022-12-07T07:42:38;10.60;;;4.18;;
61150;SDS011;47029;50.994;2.876;2022-12-07T07:45:13;12.90;;;4.37;;
61150;SDS011;47029;50.994;2.876;2022-12-07T07:47:42;12.27;;;3.20;;
61150;SDS011;47029;50.994;2.876;2022-12-07T07:50:17;14.27;;;4.47;;
61150;SDS011;47029;50.994;2.876;2022-12-07T07:52:46;12.40;;;4.32;;
61150;SDS011;47029;50.994;2.876;2022-12-07T07:55:22;13.32;;;3.50;;
61150;SDS011;47029;50.994;2.876;2022-12-07T07:57:57;8.27;;;2.60;;
61150;SDS011;47029;50.994;2.876;2022-12-07T08:00:31;7.20;;;2.10;;
61150;SDS011;47029;50.994;2.876;2022-12-07T08:03:00;5.90;;;1.95;;
61150;SDS011;47029;50.994;2.876;2022-12-07T08:05:30;5.82;;;2.05;;
61150;SDS011;47029;50.994;2.876;2022-12-07T08:08:04;6.72;;;1.95;;
61150;SDS011;47029;50.994;2.876;2022-12-07T08:10:43;10.30;;;2.62;;
61150;SDS011;47029;50.994;2.876;2022-12-07T08:13:20;7.15;;;2.30;;
61150;SDS011;47029;50.994;2.876;2022-12-07T08:15:50;7.95;;;2.50;;
61150;SDS011;47029;50.994;2.876;2022-12-07T08:18:20;12.55;;;3.67;;
61150;SDS011;47029;50.994;2.876;2022-12-07T08:23:32;8.68;;;3.08;;
61150;SDS011;47029;50.994;2.876;2022-12-07T08:26:10;5.50;;;1.80;;
61150;SDS011;47029;50.994;2.876;2022-12-07T08:28:41;5.30;;;2.00;;
61150;SDS011;47029;50.994;2.876;2022-12-07T08:31:18;9.55;;;3.03;;
61150;SDS011;47029;50.994;2.876;2022-12-07T08:33:48;10.95;;;3.62;;
61150;SDS011;47029;50.994;2.876;2022-12-07T08:36:24;8.50;;;3.05;;
61150;SDS011;47029;50.994;2.876;2022-12-07T08:38:54;9.73;;;2.90;;
61150;SDS011;47029;50.994;2.876;2022-12-07T08:41:25;9.43;;;3.25;;
61150;SDS011;47029;50.994;2.876;2022-12-07T08:43:55;9.25;;;2.50;;
61150;SDS011;47029;50.994;2.876;2022-12-07T08:46:39;9.48;;;3.50;;
61150;SDS011;47029;50.994;2.876;2022-12-07T08:49:22;8.60;;;3.05;;
61150;SDS011;47029;50.994;2.876;2022-12-07T08:52:08;11.48;;;3.20;;
61150;SDS011;47029;50.994;2.876;2022-12-07T08:54:45;13.25;;;5.10;;
61150;SDS011;47029;50.994;2.876;2022-12-07T08:57:23;10.30;;;4.65;;
61150;SDS011;47029;50.994;2.876;2022-12-07T09:00:02;16.27;;;6.75;;
61150;SDS011;47029;50.994;2.876;2022-12-07T09:02:38;14.55;;;4.62;;
61150;SDS011;47029;50.994;2.876;2022-12-07T09:05:07;13.02;;;4.90;;
61150;SDS011;47029;50.994;2.876;2022-12-07T09:07:44;10.38;;;4.00;;
61150;SDS011;47029;50.994;2.876;2022-12-07T09:10:23;10.48;;;3.30;;
61150;SDS011;47029;50.994;2.876;2022-12-07T09:12:59;10.60;;;3.35;;
61150;SDS011;47029;50.994;2.876;2022-12-07T09:15:36;10.80;;;3.22;;
61150;SDS011;47029;50.994;2.876;2022-12-07T09:18:11;11.18;;;3.58;;
61150;SDS011;47029;50.994;2.876;2022-12-07T09:20:47;10.80;;;3.40;;
61150;SDS011;47029;50.994;2.876;2022-12-07T09:23:16;12.07;;;3.70;;
61150;SDS011;47029;50.994;2.876;2022-12-07T09:25:51;11.60;;;4.05;;
61150;SDS011;47029;50.994;2.876;2022-12-07T09:28:20;12.02;;;3.60;;
61150;SDS011;47029;50.994;2.876;2022-12-07T09:30:50;11.40;;;3.28;;
61150;SDS011;47029;50.994;2.876;2022-12-07T09:33:25;13.45;;;3.80;;
61150;SDS011;47029;50.994;2.876;2022-12-07T09:35:54;11.10;;;3.22;;
61150;SDS011;47029;50.994;2.876;2022-12-07T09:38:31;12.15;;;4.18;;
61150;SDS011;47029;50.994;2.876;2022-12-07T09:41:04;12.85;;;4.20;;
61150;SDS011;47029;50.994;2.876;2022-12-07T09:43:40;10.43;;;4.60;;
61150;SDS011;47029;50.994;2.876;2022-12-07T09:46:13;10.73;;;3.67;;
61150;SDS011;47029;50.994;2.876;2022-12-07T09:48:43;8.88;;;2.65;;
61150;SDS011;47029;50.994;2.876;2022-12-07T09:51:20;10.82;;;2.90;;
61150;SDS011;47029;50.994;2.876;2022-12-07T09:53:50;8.95;;;3.08;;
61150;SDS011;47029;50.994;2.876;2022-12-07T09:56:19;9.25;;;3.25;;
61150;SDS011;47029;50.994;2.876;2022-12-07T10:01:27;9.70;;;3.17;;
61150;SDS011;47029;50.994;2.876;2022-12-07T10:04:09;8.63;;;3.40;;
61150;SDS011;47029;50.994;2.876;2022-12-07T10:06:47;11.85;;;3.72;;
61150;SDS011;47029;50.994;2.876;2022-12-07T10:09:17;10.55;;;2.90;;
61150;SDS011;47029;50.994;2.876;2022-12-07T10:12:06;10.05;;;3.15;;
61150;SDS011;47029;50.994;2.876;2022-12-07T10:15:00;8.55;;;2.50;;
61150;SDS011;47029;50.994;2.876;2022-12-07T10:17:38;10.55;;;2.72;;
61150;SDS011;47029;50.994;2.876;2022-12-07T10:22:56;8.18;;;2.80;;
61150;SDS011;47029;50.994;2.876;2022-12-07T10:25:34;6.43;;;2.50;;
61150;SDS011;47029;50.994;2.876;2022-12-07T10:30:46;5.80;;;2.20;;
61150;SDS011;47029;50.994;2.876;2022-12-07T10:36:25;6.12;;;2.28;;
61150;SDS011;47029;50.994;2.876;2022-12-07T10:41:54;6.22;;;2.05;;
61150;SDS011;47029;50.994;2.876;2022-12-07T10:44:31;5.87;;;2.00;;
61150;SDS011;47029;50.994;2.876;2022-12-07T10:50:00;6.43;;;2.35;;
61150;SDS011;47029;50.994;2.876;2022-12-07T10:55:56;7.07;;;2.20;;
61150;SDS011;47029;50.994;2.876;2022-12-07T10:58:36;8.45;;;2.50;;
61150;SDS011;47029;50.994;2.876;2022-12-07T11:01:32;9.02;;;2.37;;
61150;SDS011;47029;50.994;2.876;2022-12-07T11:04:29;6.75;;;2.17;;
61150;SDS011;47029;50.994;2.876;2022-12-07T11:07:28;4.82;;;2.22;;
61150;SDS011;47029;50.994;2.876;2022-12-07T11:18:37;10.30;;;4.12;;
61150;SDS011;47029;50.994;2.876;2022-12-07T11:21:20;10.18;;;3.05;;
61150;SDS011;47029;50.994;2.876;2022-12-07T11:23:56;6.45;;;2.10;;
61150;SDS011;47029;50.994;2.876;2022-12-07T11:35:51;9.73;;;2.80;;
61150;SDS011;47029;50.994;2.876;2022-12-07T11:38:26;8.68;;;3.00;;
61150;SDS011;47029;50.994;2.876;2022-12-07T11:41:03;7.82;;;2.40;;
61150;SDS011;47029;50.994;2.876;2022-12-07T11:44:05;10.90;;;3.40;;
61150;SDS011;47029;50.994;2.876;2022-12-07T11:49:20;9.55;;;3.37;;
61150;SDS011;47029;50.994;2.876;2022-12-07T11:51:59;9.52;;;3.35;;
61150;SDS011;47029;50.994;2.876;2022-12-07T11:54:30;12.65;;;3.42;;
61150;SDS011;47029;50.994;2.876;2022-12-07T11:57:03;11.40;;;4.47;;
61150;SDS011;47029;50.994;2.876;2022-12-07T11:59:39;8.85;;;3.45;;
61150;SDS011;47029;50.994;2.876;2022-12-07T12:02:22;10.50;;;3.20;;
61150;SDS011;47029;50.994;2.876;2022-12-07T12:05:13;14.60;;;4.28;;
61150;SDS011;47029;50.994;2.876;2022-12-07T12:07:45;12.65;;;3.60;;
61150;SDS011;47029;50.994;2.876;2022-12-07T12:10:19;11.38;;;3.72;;
61150;SDS011;47029;50.994;2.876;2022-12-07T12:21:27;8.20;;;3.15;;
61150;SDS011;47029;50.994;2.876;2022-12-07T12:24:00;11.40;;;3.25;;
61150;SDS011;47029;50.994;2.876;2022-12-07T12:26:40;11.55;;;4.00;;
61150;SDS011;47029;50.994;2.876;2022-12-07T12:37:54;10.57;;;3.30;;
61150;SDS011;47029;50.994;2.876;2022-12-07T12:42:53;8.50;;;3.03;;
61150;SDS011;47029;50.994;2.876;2022-12-07T12:45:22;9.88;;;2.92;;
61150;SDS011;47029;50.994;2.876;2022-12-07T12:52:55;8.80;;;3.15;;
61150;SDS011;47029;50.994;2.876;2022-12-07T13:00:45;14.23;;;4.12;;
61150;SDS011;47029;50.994;2.876;2022-12-07T13:03:26;12.70;;;4.12;;
61150;SDS011;47029;50.994;2.876;2022-12-07T13:08:43;13.25;;;4.50;;
61150;SDS011;47029;50.994;2.876;2022-12-07T13:11:16;15.77;;;5.15;;
61150;SDS011;47029;50.994;2.876;2022-12-07T13:13:56;13.43;;;4.62;;
61150;SDS011;47029;50.994;2.876;2022-12-07T13:16:57;12.10;;;4.18;;
61150;SDS011;47029;50.994;2.876;2022-12-07T13:24:56;11.15;;;4.65;;
61150;SDS011;47029;50.994;2.876;2022-12-07T13:27:23;12.52;;;4.05;;
61150;SDS011;47029;50.994;2.876;2022-12-07T13:29:50;11.02;;;4.03;;
61150;SDS011;47029;50.994;2.876;2022-12-07T13:32:27;14.07;;;4.28;;
61150;SDS011;47029;50.994;2.876;2022-12-07T13:34:54;13.77;;;4.00;;
61150;SDS011;47029;50.994;2.876;2022-12-07T13:37:23;11.77;;;4.00;;
61150;SDS011;47029;50.994;2.876;2022-12-07T13:39:56;12.13;;;3.72;;
61150;SDS011;47029;50.994;2.876;2022-12-07T13:42:28;10.77;;;3.70;;
61150;SDS011;47029;50.994;2.876;2022-12-07T13:45:16;13.38;;;4.18;;
61150;SDS011;47029;50.994;2.876;2022-12-07T13:47:56;9.02;;;3.53;;
61150;SDS011;47029;50.994;2.876;2022-12-07T13:50:26;13.27;;;4.35;;
61150;SDS011;47029;50.994;2.876;2022-12-07T13:52:58;8.85;;;3.70;;
61150;SDS011;47029;50.994;2.876;2022-12-07T13:55:27;12.43;;;4.00;;
61150;SDS011;47029;50.994;2.876;2022-12-07T13:57:54;12.77;;;4.25;;
61150;SDS011;47029;50.994;2.876;2022-12-07T14:00:23;12.18;;;3.92;;
61150;SDS011;47029;50.994;2.876;2022-12-07T14:05:30;11.98;;;3.80;;
61150;SDS011;47029;50.994;2.876;2022-12-07T14:08:02;14.48;;;5.10;;
61150;SDS011;47029;50.994;2.876;2022-12-07T14:12:59;12.00;;;4.30;;
61150;SDS011;47029;50.994;2.876;2022-12-07T14:15:29;10.00;;;4.05;;
61150;SDS011;47029;50.994;2.876;2022-12-07T14:18:00;14.18;;;4.45;;
61150;SDS011;47029;50.994;2.876;2022-12-07T14:22:59;12.45;;;3.87;;
61150;SDS011;47029;50.994;2.876;2022-12-07T14:25:33;12.90;;;4.30;;
61150;SDS011;47029;50.994;2.876;2022-12-07T14:28:36;11.52;;;3.75;;
61150;SDS011;47029;50.994;2.876;2022-12-07T14:31:02;15.32;;;3.40;;
61150;SDS011;47029;50.994;2.876;2022-12-07T14:33:34;11.35;;;3.60;;
61150;SDS011;47029;50.994;2.876;2022-12-07T14:36:00;13.68;;;3.78;;
61150;SDS011;47029;50.994;2.876;2022-12-07T14:38:27;8.98;;;3.12;;
61150;SDS011;47029;50.994;2.876;2022-12-07T14:40:56;11.43;;;3.55;;
61150;SDS011;47029;50.994;2.876;2022-12-07T14:43:44;9.55;;;3.40;;
61150;SDS011;47029;50.994;2.876;2022-12-07T14:46:10;11.10;;;3.42;;
61150;SDS011;47029;50.994;2.876;2022-12-07T14:48:38;11.12;;;4.10;;
61150;SDS011;47029;50.994;2.876;2022-12-07T14:51:04;10.90;;;3.67;;
61150;SDS011;47029;50.994;2.876;2022-12-07T14:53:37;10.90;;;3.60;;
61150;SDS011;47029;50.994;2.876;2022-12-07T14:56:06;8.90;;;3.40;;
61150;SDS011;47029;50.994;2.876;2022-12-07T14:58:33;8.65;;;3.28;;
61150;SDS011;47029;50.994;2.876;2022-12-07T15:00:59;9.57;;;3.40;;
61150;SDS011;47029;50.994;2.876;2022-12-07T15:03:25;12.93;;;3.60;;
61150;SDS011;47029;50.994;2.876;2022-12-07T15:05:51;10.07;;;3.58;;
61150;SDS011;47029;50.994;2.876;2022-12-07T15:08:17;8.55;;;3.17;;
61150;SDS011;47029;50.994;2.876;2022-12-07T15:10:43;10.05;;;3.70;;
61150;SDS011;47029;50.994;2.876;2022-12-07T15:13:09;11.95;;;3.70;;
61150;SDS011;47029;50.994;2.876;2022-12-07T15:15:54;12.48;;;4.18;;
61150;SDS011;47029;50.994;2.876;2022-12-07T15:18:21;12.73;;;4.37;;
61150;SDS011;47029;50.994;2.876;2022-12-07T15:20:48;11.20;;;3.60;;
61150;SDS011;47029;50.994;2.876;2022-12-07T15:23:15;11.35;;;3.45;;
61150;SDS011;47029;50.994;2.876;2022-12-07T15:25:42;10.52;;;3.53;;
61150;SDS011;47029;50.994;2.876;2022-12-07T15:28:09;11.52;;;3.37;;
61150;SDS011;47029;50.994;2.876;2022-12-07T15:30:37;10.93;;;4.12;;
61150;SDS011;47029;50.994;2.876;2022-12-07T15:33:05;11.00;;;4.10;;
61150;SDS011;47029;50.994;2.876;2022-12-07T15:35:30;13.60;;;4.80;;
61150;SDS011;47029;50.994;2.876;2022-12-07T15:37:56;10.02;;;3.67;;
61150;SDS011;47029;50.994;2.876;2022-12-07T15:40:22;12.32;;;3.60;;
61150;SDS011;47029;50.994;2.876;2022-12-07T15:42:48;11.07;;;3.83;;
61150;SDS011;47029;50.994;2.876;2022-12-07T15:45:14;12.07;;;3.80;;
61150;SDS011;47029;50.994;2.876;2022-12-07T15:47:41;9.40;;;3.45;;
61150;SDS011;47029;50.994;2.876;2022-12-07T15:50:11;12.40;;;3.70;;
61150;SDS011;47029;50.994;2.876;2022-12-07T15:52:39;12.13;;;3.90;;
61150;SDS011;47029;50.994;2.876;2022-12-07T15:55:06;9.00;;;3.75;;
61150;SDS011;47029;50.994;2.876;2022-12-07T15:57:32;12.43;;;4.28;;
61150;SDS011;47029;50.994;2.876;2022-12-07T16:00:00;13.88;;;5.30;;
61150;SDS011;47029;50.994;2.876;2022-12-07T16:02:26;12.37;;;5.05;;
61150;SDS011;47029;50.994;2.876;2022-12-07T16:04:52;15.50;;;7.85;;
61150;SDS011;47029;50.994;2.876;2022-12-07T16:07:18;13.00;;;5.85;;
61150;SDS011;47029;50.994;2.876;2022-12-07T16:09:45;13.70;;;5.35;;
61150;SDS011;47029;50.994;2.876;2022-12-07T16:12:12;13.10;;;4.75;;
61150;SDS011;47029;50.994;2.876;2022-12-07T16:14:39;18.77;;;5.82;;
61150;SDS011;47029;50.994;2.876;2022-12-07T16:17:05;12.07;;;4.03;;
61150;SDS011;47029;50.994;2.876;2022-12-07T16:19:33;11.80;;;4.03;;
61150;SDS011;47029;50.994;2.876;2022-12-07T16:21:59;9.80;;;3.78;;
61150;SDS011;47029;50.994;2.876;2022-12-07T16:24:26;29.60;;;14.35;;
61150;SDS011;47029;50.994;2.876;2022-12-07T16:26:51;49.42;;;24.17;;
61150;SDS011;47029;50.994;2.876;2022-12-07T16:29:18;17.37;;;8.60;;
61150;SDS011;47029;50.994;2.876;2022-12-07T16:31:45;11.73;;;5.18;;
61150;SDS011;47029;50.994;2.876;2022-12-07T16:34:12;14.80;;;6.12;;
61150;SDS011;47029;50.994;2.876;2022-12-07T16:36:39;13.00;;;6.25;;
61150;SDS011;47029;50.994;2.876;2022-12-07T16:39:06;14.40;;;5.22;;
61150;SDS011;47029;50.994;2.876;2022-12-07T16:41:33;11.20;;;4.43;;
61150;SDS011;47029;50.994;2.876;2022-12-07T16:44:01;14.48;;;7.25;;
61150;SDS011;47029;50.994;2.876;2022-12-07T16:46:31;10.82;;;5.12;;
61150;SDS011;47029;50.994;2.876;2022-12-07T16:48:59;13.23;;;5.00;;
61150;SDS011;47029;50.994;2.876;2022-12-07T16:51:26;13.80;;;5.10;;
61150;SDS011;47029;50.994;2.876;2022-12-07T16:53:54;14.48;;;6.40;;
61150;SDS011;47029;50.994;2.876;2022-12-07T16:56:21;12.50;;;4.40;;
61150;SDS011;47029;50.994;2.876;2022-12-07T16:58:48;30.48;;;13.85;;
61150;SDS011;47029;50.994;2.876;2022-12-07T17:01:21;51.55;;;22.55;;
61150;SDS011;47029;50.994;2.876;2022-12-07T17:03:52;26.70;;;12.37;;
61150;SDS011;47029;50.994;2.876;2022-12-07T17:06:21;14.93;;;7.20;;
61150;SDS011;47029;50.994;2.876;2022-12-07T17:08:48;17.98;;;9.30;;
61150;SDS011;47029;50.994;2.876;2022-12-07T17:11:18;22.87;;;10.93;;
61150;SDS011;47029;50.994;2.876;2022-12-07T17:13:47;18.33;;;9.52;;